createdAt,value
2022-11-22T00:01:15.657Z,13.53
2022-11-22T00:03:48.649Z,15.73
2022-11-22T00:06:20.610Z,14.80
2022-11-22T00:08:52.375Z,14.73
2022-11-22T00:11:24.316Z,13.37
2022-11-22T00:13:56.203Z,14.00
2022-11-22T00:16:28.184Z,14.73
2022-11-22T00:18:59.918Z,13.43
2022-11-22T00:21:32.191Z,13.70
2022-11-22T00:24:04.229Z,12.80
2022-11-22T00:26:35.949Z,13.30
2022-11-22T00:29:07.653Z,13.73
2022-11-22T00:31:38.928Z,14.70
2022-11-22T00:34:10.187Z,16.07
2022-11-22T00:36:41.529Z,15.23
2022-11-22T00:39:12.793Z,15.87
2022-11-22T00:41:44.060Z,16.23
2022-11-22T00:44:15.312Z,15.77
2022-11-22T00:46:46.597Z,16.23
2022-11-22T00:49:17.964Z,15.53
2022-11-22T00:51:49.209Z,15.90
2022-11-22T00:54:20.467Z,17.77
2022-11-22T00:56:51.819Z,14.53
2022-11-22T00:59:23.084Z,14.87
2022-11-22T01:01:54.355Z,11.67
2022-11-22T01:04:25.755Z,14.23
2022-11-22T01:06:57.013Z,14.50
2022-11-22T01:09:28.577Z,15.13
2022-11-22T01:12:00.091Z,14.30
2022-11-22T01:14:31.572Z,13.97
2022-11-22T01:17:03.071Z,13.23
2022-11-22T01:19:34.432Z,14.67
2022-11-22T01:22:05.771Z,15.27
2022-11-22T01:24:37.066Z,13.93
2022-11-22T01:27:08.344Z,14.40
2022-11-22T01:29:39.632Z,13.37
2022-11-22T01:32:10.903Z,14.07
2022-11-22T01:34:42.169Z,13.63
2022-11-22T01:37:13.444Z,14.77
2022-11-22T01:39:44.718Z,14.27
2022-11-22T01:42:16.201Z,12.50
2022-11-22T01:44:48.282Z,15.07
2022-11-22T01:47:25.244Z,12.67
2022-11-22T01:50:07.006Z,12.57
2022-11-22T01:52:38.295Z,14.10
2022-11-22T01:55:12.808Z,14.23
2022-11-22T01:57:45.344Z,12.60
2022-11-22T02:00:17.671Z,14.47
2022-11-22T02:02:53.108Z,13.77
2022-11-22T02:05:28.973Z,16.27
2022-11-22T02:08:17.596Z,14.77
2022-11-22T02:10:51.768Z,14.37
2022-11-22T02:13:24.361Z,12.90
2022-11-22T02:15:56.541Z,14.47
2022-11-22T02:18:27.948Z,14.17
2022-11-22T02:20:59.573Z,13.20
2022-11-22T02:24:00.211Z,13.93
2022-11-22T02:26:32.249Z,13.77
2022-11-22T02:29:06.382Z,12.27
2022-11-22T02:31:45.991Z,14.17
2022-11-22T02:34:17.243Z,13.20
2022-11-22T02:36:51.314Z,13.63
2022-11-22T02:39:29.254Z,13.80
2022-11-22T02:42:01.598Z,13.53
2022-11-22T02:44:33.555Z,13.70
2022-11-22T02:47:04.872Z,13.97
2022-11-22T02:49:36.143Z,12.77
2022-11-22T02:52:07.396Z,12.67
2022-11-22T02:54:38.628Z,13.67
2022-11-22T02:57:09.909Z,13.67
2022-11-22T02:59:41.155Z,12.83
2022-11-22T03:02:12.413Z,11.43
2022-11-22T03:04:43.669Z,11.33
2022-11-22T03:07:14.976Z,13.00
2022-11-22T03:09:46.370Z,13.23
2022-11-22T03:12:17.631Z,12.37
2022-11-22T03:14:48.925Z,12.50
2022-11-22T03:17:20.213Z,12.50
2022-11-22T03:19:51.476Z,11.30
2022-11-22T03:22:22.787Z,12.33
2022-11-22T03:24:54.030Z,13.10
2022-11-22T03:27:25.288Z,12.40
2022-11-22T03:29:56.569Z,12.90
2022-11-22T03:32:27.904Z,12.63
2022-11-22T03:34:59.168Z,13.13
2022-11-22T03:37:30.452Z,12.13
2022-11-22T03:40:01.921Z,13.27
2022-11-22T03:42:33.241Z,13.77
2022-11-22T03:45:04.919Z,13.57
2022-11-22T03:47:36.168Z,12.30
2022-11-22T03:50:07.780Z,11.77
2022-11-22T03:52:39.043Z,12.80
2022-11-22T03:55:10.310Z,12.53
2022-11-22T03:57:41.577Z,13.53
2022-11-22T04:00:13.337Z,11.97
2022-11-22T04:02:44.635Z,11.80
2022-11-22T04:05:16.034Z,12.07
2022-11-22T04:07:47.521Z,13.33
2022-11-22T04:10:22.267Z,13.23
2022-11-22T04:13:00.079Z,12.93
2022-11-22T04:15:31.452Z,11.40
2022-11-22T04:18:02.943Z,12.40
2022-11-22T04:20:52.734Z,12.70
2022-11-22T04:23:30.702Z,12.70
2022-11-22T04:26:05.020Z,11.67
2022-11-22T04:29:07.476Z,11.83
2022-11-22T04:31:46.359Z,12.57
2022-11-22T04:34:17.633Z,12.00
2022-11-22T04:36:48.966Z,12.47
2022-11-22T04:39:20.303Z,12.93
2022-11-22T04:42:14.267Z,12.57
2022-11-22T04:44:45.966Z,11.77
2022-11-22T04:47:37.045Z,12.87
2022-11-22T04:50:28.732Z,11.60
2022-11-22T04:52:59.984Z,13.67
2022-11-22T04:55:31.333Z,11.93
2022-11-22T04:58:02.702Z,13.27
2022-11-22T05:00:34.373Z,14.00
2022-11-22T05:03:06.813Z,12.87
2022-11-22T05:05:40.146Z,12.93
2022-11-22T05:08:12.169Z,12.37
2022-11-22T05:10:59.240Z,11.87
2022-11-22T05:13:36.160Z,12.47
2022-11-22T05:16:10.011Z,11.30
2022-11-22T05:18:42.078Z,12.33
2022-11-22T05:21:14.483Z,12.87
2022-11-22T05:23:54.695Z,12.43
2022-11-22T05:26:34.438Z,12.03
2022-11-22T05:29:08.100Z,11.93
2022-11-22T05:31:39.979Z,12.20
2022-11-22T05:34:11.235Z,12.23
2022-11-22T05:36:42.545Z,13.73
2022-11-22T05:39:13.806Z,11.47
2022-11-22T05:41:55.767Z,12.83
2022-11-22T05:44:27.288Z,11.07
2022-11-22T05:46:58.524Z,12.20
2022-11-22T05:49:30.054Z,12.10
2022-11-22T05:52:02.832Z,11.70
2022-11-22T05:54:34.154Z,12.67
2022-11-22T05:57:06.320Z,12.90
2022-11-22T05:59:42.568Z,12.23
2022-11-22T06:02:15.356Z,12.83
2022-11-22T06:04:46.685Z,12.43
2022-11-22T06:07:18.100Z,12.67
2022-11-22T06:09:49.383Z,12.27
2022-11-22T06:12:20.628Z,12.70
2022-11-22T06:14:51.909Z,12.10
2022-11-22T06:17:23.313Z,11.87
2022-11-22T06:19:54.568Z,12.53
2022-11-22T06:22:26.331Z,12.57
2022-11-22T06:24:57.624Z,11.47
2022-11-22T06:27:28.870Z,12.33
2022-11-22T06:30:00.152Z,11.97
2022-11-22T06:32:34.984Z,13.13
2022-11-22T06:35:06.641Z,12.97
2022-11-22T06:37:37.888Z,12.30
2022-11-22T06:40:11.621Z,12.40
2022-11-22T06:42:42.889Z,13.03
2022-11-22T06:45:14.168Z,11.87
2022-11-22T06:47:45.424Z,12.70
2022-11-22T06:50:21.587Z,11.70
2022-11-22T06:52:53.481Z,11.97
2022-11-22T06:55:48.952Z,11.33
2022-11-22T06:58:15.985Z,11.77
2022-11-22T07:00:47.262Z,11.53
2022-11-22T07:03:18.555Z,10.90
2022-11-22T07:05:51.208Z,12.10
2022-11-22T07:08:23.698Z,10.90
2022-11-22T07:10:55.030Z,10.67
2022-11-22T07:13:26.999Z,12.07
2022-11-22T07:16:00.194Z,11.50
2022-11-22T07:18:32.546Z,11.57
2022-11-22T07:21:12.854Z,11.23
2022-11-22T07:23:46.811Z,10.93
2022-11-22T07:26:19.327Z,11.20
2022-11-22T07:28:50.653Z,11.07
2022-11-22T07:31:21.967Z,10.77
2022-11-22T07:33:56.300Z,11.70
2022-11-22T07:36:29.563Z,11.27
2022-11-22T07:39:02.679Z,11.03
2022-11-22T07:41:33.957Z,11.67
2022-11-22T07:44:05.284Z,11.40
2022-11-22T07:46:36.569Z,11.07
2022-11-22T07:49:13.789Z,11.53
2022-11-22T07:51:45.063Z,10.00
2022-11-22T07:54:16.340Z,11.37
2022-11-22T07:56:47.656Z,10.47
2022-11-22T07:59:19.036Z,11.57
2022-11-22T08:01:50.346Z,11.30
2022-11-22T08:04:21.665Z,10.77
2022-11-22T08:06:52.943Z,11.07
2022-11-22T08:09:24.208Z,11.87
2022-11-22T08:11:55.626Z,12.10
2022-11-22T08:14:27.179Z,11.53
2022-11-22T08:16:58.572Z,11.07
2022-11-22T08:19:31.155Z,11.50
2022-11-22T08:22:02.612Z,11.07
2022-11-22T08:24:33.945Z,11.67
2022-11-22T08:27:05.348Z,11.77
2022-11-22T08:29:36.716Z,11.27
2022-11-22T08:32:08.011Z,12.10
2022-11-22T08:34:44.137Z,11.60
2022-11-22T08:37:18.097Z,10.80
2022-11-22T08:39:49.331Z,10.53
2022-11-22T08:42:20.612Z,10.63
2022-11-22T08:44:51.858Z,11.87
2022-11-22T08:47:23.163Z,11.83
2022-11-22T08:49:54.425Z,11.80
2022-11-22T08:52:25.697Z,11.67
2022-11-22T08:54:56.977Z,12.10
2022-11-22T08:57:28.239Z,12.57
2022-11-22T08:59:59.885Z,11.20
2022-11-22T09:02:31.208Z,11.33
2022-11-22T09:05:02.685Z,10.93
2022-11-22T09:10:25.896Z,12.00
2022-11-22T09:12:57.513Z,10.97
2022-11-22T09:15:28.809Z,11.47
2022-11-22T09:18:02.046Z,11.70
2022-11-22T09:20:33.324Z,12.03
2022-11-22T09:23:04.770Z,11.17
2022-11-22T09:25:36.122Z,12.07
2022-11-22T09:28:07.473Z,11.77
2022-11-22T09:30:38.731Z,12.57
2022-11-22T09:33:10.195Z,13.67
2022-11-22T09:35:41.518Z,11.70
2022-11-22T09:38:12.760Z,11.90
2022-11-22T09:40:47.286Z,11.90
2022-11-22T09:43:36.807Z,12.13
2022-11-22T09:46:29.742Z,12.10
2022-11-22T09:49:25.692Z,10.77
2022-11-22T09:52:07.707Z,12.17
2022-11-22T09:54:48.195Z,12.63
2022-11-22T09:57:24.730Z,12.27
2022-11-22T10:00:04.338Z,11.83
2022-11-22T10:02:59.435Z,11.83
2022-11-22T10:05:52.959Z,12.87
2022-11-22T10:08:57.169Z,11.27
2022-11-22T10:11:39.741Z,12.50
2022-11-22T10:14:30.006Z,10.80
2022-11-22T10:17:08.141Z,11.43
2022-11-22T10:19:45.694Z,10.67
2022-11-22T10:22:16.994Z,11.47
2022-11-22T10:24:48.268Z,11.40
2022-11-22T10:27:19.611Z,11.27
2022-11-22T10:29:57.925Z,11.40
2022-11-22T10:32:39.242Z,10.97
2022-11-22T10:35:13.789Z,10.50
2022-11-22T10:38:01.712Z,12.63
2022-11-22T10:40:50.498Z,10.37
2022-11-22T10:43:33.926Z,10.40
2022-11-22T10:46:32.494Z,9.53
2022-11-22T10:49:18.877Z,10.43
2022-11-22T10:52:04.312Z,9.65
2022-11-22T10:54:52.665Z,11.20
2022-11-22T10:57:38.651Z,10.30
2022-11-22T11:00:21.516Z,10.07
2022-11-22T11:03:03.425Z,9.80
2022-11-22T11:09:36.115Z,10.53
2022-11-22T11:11:42.741Z,10.18
2022-11-22T11:14:26.516Z,9.63
2022-11-22T11:16:59.241Z,10.77
2022-11-22T11:19:37.543Z,11.17
2022-11-22T11:22:08.768Z,10.90
2022-11-22T11:24:40.711Z,9.37
2022-11-22T11:27:12.448Z,9.63
2022-11-22T11:29:50.620Z,10.67
2022-11-22T11:32:21.978Z,10.30
2022-11-22T11:35:04.051Z,10.10
2022-11-22T11:37:37.963Z,11.57
2022-11-22T11:40:32.788Z,9.93
2022-11-22T11:43:20.064Z,10.67
2022-11-22T11:45:51.849Z,10.97
2022-11-22T11:48:35.094Z,10.37
2022-11-22T11:51:37.009Z,10.00
2022-11-22T11:54:15.864Z,10.23
2022-11-22T11:56:49.196Z,10.63
2022-11-22T11:59:39.759Z,10.93
2022-11-22T12:02:15.238Z,10.97
2022-11-22T12:05:00.836Z,10.95
2022-11-22T12:07:35.215Z,10.70
2022-11-22T12:10:45.364Z,10.20
2022-11-22T12:13:30.220Z,9.80
2022-11-22T12:16:15.939Z,9.50
2022-11-22T12:18:58.812Z,10.40
2022-11-22T12:21:53.206Z,10.53
2022-11-22T12:25:09.454Z,11.60
2022-11-22T12:27:22.629Z,10.70
2022-11-22T12:29:53.952Z,10.47
2022-11-22T12:32:28.164Z,10.50
2022-11-22T12:35:05.066Z,10.97
2022-11-22T12:37:41.389Z,10.80
2022-11-22T12:42:51.827Z,9.80
2022-11-22T12:45:40.402Z,10.13
2022-11-22T12:48:36.901Z,9.40
2022-11-22T12:51:45.343Z,9.98
2022-11-22T12:54:22.339Z,10.23
2022-11-22T12:56:58.174Z,9.40
2022-11-22T12:59:38.940Z,10.95
2022-11-22T13:02:20.095Z,10.17
2022-11-22T13:04:58.988Z,10.43
2022-11-22T13:07:50.617Z,9.73
2022-11-22T13:10:38.517Z,10.20
2022-11-22T13:13:27.719Z,10.77
2022-11-22T13:16:02.723Z,11.13
2022-11-22T13:18:41.934Z,11.90
2022-11-22T13:21:30.728Z,10.60
2022-11-22T13:24:07.855Z,10.70
2022-11-22T13:26:44.638Z,11.37
2022-11-22T13:29:23.513Z,11.30
2022-11-22T13:32:07.225Z,10.57
2022-11-22T13:35:06.911Z,10.57
2022-11-22T13:37:50.643Z,10.90
2022-11-22T13:40:29.692Z,11.87
2022-11-22T13:43:16.698Z,12.70
2022-11-22T13:46:04.958Z,10.50
2022-11-22T13:48:38.937Z,11.10
2022-11-22T13:51:14.205Z,10.67
2022-11-22T13:53:47.884Z,11.27
2022-11-22T13:56:22.247Z,12.47
2022-11-22T13:59:14.189Z,12.57
2022-11-22T14:01:45.558Z,10.27
2022-11-22T14:04:16.932Z,11.93
2022-11-22T14:06:49.483Z,11.30
2022-11-22T14:09:44.047Z,11.77
2022-11-22T14:12:29.804Z,11.67
2022-11-22T14:15:23.035Z,11.57
2022-11-22T14:18:26.176Z,11.07
2022-11-22T14:21:04.408Z,11.70
2022-11-22T14:23:57.528Z,12.13
2022-11-22T14:26:50.866Z,10.63
2022-11-22T14:29:37.115Z,11.33
2022-11-22T14:32:15.993Z,12.10
2022-11-22T14:35:05.527Z,11.77
2022-11-22T14:37:56.684Z,12.10
2022-11-22T14:40:32.953Z,12.30
2022-11-22T14:45:55.173Z,11.70
2022-11-22T14:48:42.876Z,11.53
2022-11-22T14:51:29.251Z,11.93
2022-11-22T14:54:16.120Z,11.97
2022-11-22T14:56:48.305Z,12.80
2022-11-22T14:59:54.082Z,11.97
2022-11-22T15:02:44.903Z,12.20
2022-11-22T15:09:13.452Z,12.80
2022-11-22T15:09:13.832Z,12.70
2022-11-22T15:11:49.770Z,12.43
2022-11-22T15:58:18.421Z,12.80
2022-11-22T16:00:49.988Z,12.70
2022-11-22T16:03:38.886Z,13.47
2022-11-22T16:06:15.210Z,12.97
2022-11-22T16:11:33.851Z,12.87
2022-11-22T16:14:39.877Z,13.85
2022-11-22T16:17:25.294Z,11.53
2022-11-22T16:20:30.806Z,13.93
2022-11-22T16:23:11.860Z,15.20
2022-11-22T16:25:50.525Z,15.07
2022-11-22T16:28:27.780Z,12.63
2022-11-22T16:31:16.816Z,14.80
2022-11-22T16:33:48.451Z,14.33
2022-11-22T16:36:21.900Z,14.33
2022-11-22T16:38:53.221Z,14.83
2022-11-22T16:41:26.609Z,14.37
2022-11-22T16:44:03.903Z,14.60
2022-11-22T16:46:35.184Z,15.77
2022-11-22T16:49:32.945Z,13.63
2022-11-22T16:52:04.573Z,15.37
2022-11-22T16:54:35.852Z,13.73
2022-11-22T16:57:15.089Z,14.90
2022-11-22T16:59:46.450Z,15.87
2022-11-22T17:02:17.844Z,14.30
2022-11-22T17:04:49.351Z,14.37
2022-11-22T17:07:20.778Z,14.50
2022-11-22T17:09:53.025Z,15.67
2022-11-22T17:12:32.057Z,13.07
2022-11-22T17:15:05.275Z,15.93
2022-11-22T17:17:36.737Z,13.63
2022-11-22T17:20:08.606Z,14.60
2022-11-22T17:22:40.707Z,14.93
2022-11-22T17:25:13.667Z,14.67
2022-11-22T17:27:48.057Z,15.10
2022-11-22T17:30:22.806Z,14.77
2022-11-22T17:32:54.071Z,15.53
2022-11-22T17:35:25.956Z,14.50
2022-11-22T17:37:57.287Z,14.30
2022-11-22T17:40:28.579Z,15.17
2022-11-22T17:43:01.466Z,16.23
2022-11-22T17:45:32.812Z,13.83
2022-11-22T17:48:04.472Z,14.57
2022-11-22T17:50:35.888Z,15.13
2022-11-22T17:53:07.171Z,15.43
2022-11-22T17:56:08.520Z,14.27
2022-11-22T17:58:30.446Z,15.17
2022-11-22T18:01:09.775Z,14.23
2022-11-22T18:03:42.125Z,15.33
2022-11-22T18:06:14.930Z,16.17
2022-11-22T18:08:47.348Z,16.83
2022-11-22T18:11:18.883Z,15.00
2022-11-22T18:13:50.172Z,15.93
2022-11-22T18:16:27.827Z,15.93
2022-11-22T18:19:00.569Z,14.40
2022-11-22T18:21:33.193Z,14.03
2022-11-22T18:24:08.328Z,14.77
2022-11-22T18:26:40.983Z,13.43
2022-11-22T18:32:05.304Z,15.00
2022-11-22T18:34:36.749Z,15.30
2022-11-22T18:37:08.200Z,14.70
2022-11-22T18:39:40.489Z,14.87
2022-11-22T18:42:14.714Z,13.70
2022-11-22T18:44:46.007Z,13.77
2022-11-22T18:47:17.314Z,15.10
2022-11-22T18:49:48.581Z,15.10
2022-11-22T18:52:19.851Z,14.27
2022-11-22T18:54:51.512Z,14.60
2022-11-22T18:57:22.881Z,14.93
2022-11-22T18:59:54.319Z,16.47
2022-11-22T19:02:27.270Z,16.97
2022-11-22T19:04:58.577Z,16.37
2022-11-22T19:07:30.241Z,16.03
2022-11-22T19:10:02.292Z,15.70
2022-11-22T19:12:33.712Z,17.47
2022-11-22T19:15:06.279Z,15.83
2022-11-22T19:17:40.664Z,16.33
2022-11-22T19:20:32.059Z,16.70
2022-11-22T19:23:04.904Z,15.00
2022-11-22T19:25:36.205Z,15.90
2022-11-22T19:28:07.473Z,15.73
2022-11-22T19:30:42.926Z,16.90
2022-11-22T19:33:17.064Z,16.40
2022-11-22T19:35:58.268Z,17.13
2022-11-22T19:38:29.611Z,15.20
2022-11-22T19:41:01.031Z,16.07
2022-11-22T19:43:32.310Z,15.03
2022-11-22T19:46:04.720Z,13.77
2022-11-22T19:48:39.132Z,14.83
2022-11-22T19:51:15.267Z,14.77
2022-11-22T19:53:46.642Z,15.80
2022-11-22T19:56:19.536Z,16.87
2022-11-22T19:58:55.860Z,15.87
2022-11-22T20:01:29.753Z,16.13
2022-11-22T20:04:05.856Z,16.27
2022-11-22T20:06:37.343Z,16.05
2022-11-22T20:09:11.787Z,16.07
2022-11-22T20:11:44.269Z,16.87
2022-11-22T20:14:15.541Z,16.00
2022-11-22T20:16:46.924Z,15.10
2022-11-22T20:19:18.202Z,16.00
2022-11-22T20:21:49.544Z,15.07
2022-11-22T20:24:21.142Z,16.23
2022-11-22T20:26:52.442Z,14.93
2022-11-22T20:29:24.903Z,15.67
2022-11-22T20:31:56.725Z,15.23
2022-11-22T20:34:31.258Z,15.37
2022-11-22T20:37:03.352Z,15.27
2022-11-22T20:39:36.898Z,14.57
2022-11-22T20:42:33.040Z,15.70
2022-11-22T20:45:00.227Z,13.17
2022-11-22T20:47:31.664Z,14.83
2022-11-22T20:50:03.321Z,14.90
2022-11-22T20:52:34.705Z,15.00
2022-11-22T20:55:06.539Z,15.07
2022-11-22T20:57:38.384Z,15.30
2022-11-22T21:00:11.015Z,14.77
2022-11-22T21:02:42.314Z,13.17
2022-11-22T21:05:13.735Z,15.17
2022-11-22T21:07:45.076Z,14.07
2022-11-22T21:10:16.471Z,15.23
2022-11-22T21:12:47.744Z,15.07
2022-11-22T21:15:19.161Z,13.60
2022-11-22T21:18:17.174Z,14.03
2022-11-22T21:20:41.824Z,13.00
2022-11-22T21:23:13.074Z,12.57
2022-11-22T21:25:44.588Z,14.07
2022-11-22T21:28:16.266Z,14.00
2022-11-22T21:30:55.961Z,13.70
2022-11-22T21:33:29.953Z,14.67
2022-11-22T21:36:03.082Z,13.17
2022-11-22T21:38:35.389Z,13.30
2022-11-22T21:44:01.536Z,12.43
2022-11-22T21:46:33.463Z,13.20
2022-11-22T21:49:04.965Z,12.93
2022-11-22T21:51:36.278Z,12.50
2022-11-22T21:54:07.921Z,11.93
2022-11-22T21:56:39.321Z,13.23
2022-11-22T21:59:11.227Z,10.90
2022-11-22T22:01:42.543Z,11.83
2022-11-22T22:04:13.914Z,12.20
2022-11-22T22:06:46.377Z,11.17
2022-11-22T22:09:17.704Z,11.70
2022-11-22T22:11:48.980Z,10.87
2022-11-22T22:14:20.219Z,11.13
2022-11-22T22:16:51.497Z,12.30
2022-11-22T22:19:22.736Z,11.00
2022-11-22T22:21:53.995Z,10.23
2022-11-22T22:24:25.409Z,11.33
2022-11-22T22:26:56.784Z,11.03
2022-11-22T22:29:28.355Z,10.13
2022-11-22T22:31:59.905Z,9.93
2022-11-22T22:34:31.186Z,10.67
2022-11-22T22:37:02.728Z,11.07
2022-11-22T22:39:34.059Z,8.70
2022-11-22T22:42:05.440Z,11.10
2022-11-22T22:44:36.774Z,9.77
2022-11-22T22:47:08.044Z,10.30
2022-11-22T22:49:39.418Z,10.27
2022-11-22T22:52:10.677Z,9.67
2022-11-22T22:54:41.918Z,9.67
2022-11-22T22:57:13.177Z,10.37
2022-11-22T22:59:44.417Z,9.33
2022-11-22T23:02:15.805Z,9.20
2022-11-22T23:04:47.075Z,9.97
2022-11-22T23:07:18.397Z,9.30
2022-11-22T23:09:49.683Z,9.93
2022-11-22T23:12:21.064Z,8.93
2022-11-22T23:14:52.345Z,8.43
2022-11-22T23:17:24.545Z,8.47
2022-11-22T23:19:55.783Z,8.00
2022-11-22T23:22:27.081Z,8.03
2022-11-22T23:24:58.323Z,8.57
2022-11-22T23:27:29.575Z,7.27
2022-11-22T23:30:00.891Z,7.97
2022-11-22T23:32:32.294Z,7.90
2022-11-22T23:35:03.667Z,7.93
2022-11-22T23:37:34.933Z,7.97
2022-11-22T23:40:06.872Z,7.57
2022-11-22T23:42:38.165Z,6.73
2022-11-22T23:45:09.931Z,7.17
2022-11-22T23:47:41.201Z,7.47
2022-11-22T23:50:12.454Z,6.90
2022-11-22T23:52:43.819Z,7.70
2022-11-22T23:55:18.475Z,6.80
2022-11-22T23:57:50.554Z,7.00
